Time;durP1;ratioP1;P1;durP2;ratioP2;P2;SDS_P1;SDS_P2;PMS_P1;PMS_P2;Temp;Humidity;BMP_temperature;BMP_pressure;BME280_temperature;BME280_humidity;BME280_pressure;Samples;Min_cycle;Max_cycle;Signal;HPM_P1;HPM_P2
2023/10/28 00:01:22;;;;;;;1.90;0.77;;;;;;;;;;5093167;28;20651;-75
2023/10/28 00:03:50;;;;;;;2.00;0.70;;;;;;;;;;5092872;28;20189;-75
2023/10/28 00:06:17;;;;;;;2.10;0.80;;;;;;;;;;5093245;28;20574;-75
2023/10/28 00:08:44;;;;;;;2.05;0.85;;;;;;;;;;5093519;28;20276;-75
2023/10/28 00:11:11;;;;;;;2.05;1.10;;;;;;;;;;5092861;28;20209;-75
2023/10/28 00:13:40;;;;;;;2.85;1.60;;;;;;;;;;5093563;28;20189;-75
2023/10/28 00:16:08;;;;;;;1.90;0.80;;;;;;;;;;5092558;28;20185;-75
2023/10/28 00:18:36;;;;;;;1.80;0.70;;;;;;;;;;5092931;28;20200;-74
2023/10/28 00:21:07;;;;;;;1.80;0.75;;;;;;;;;;5093192;28;20221;-75
2023/10/28 00:23:34;;;;;;;2.40;0.73;;;;;;;;;;5092889;28;20221;-75
2023/10/28 00:26:02;;;;;;;1.70;0.60;;;;;;;;;;5092775;28;20182;-75
2023/10/28 00:28:32;;;;;;;1.77;0.75;;;;;;;;;;5093022;28;20186;-76
2023/10/28 00:31:02;;;;;;;2.58;0.77;;;;;;;;;;5092320;28;20264;-75
2023/10/28 00:33:29;;;;;;;2.70;0.73;;;;;;;;;;5092959;28;20273;-75
2023/10/28 00:35:57;;;;;;;2.10;0.80;;;;;;;;;;5093186;28;20239;-75
2023/10/28 00:38:24;;;;;;;2.20;0.70;;;;;;;;;;5092880;28;20231;-75
2023/10/28 00:40:51;;;;;;;1.70;0.55;;;;;;;;;;5091638;28;20190;-75
2023/10/28 00:43:23;;;;;;;2.40;0.80;;;;;;;;;;5092620;28;20181;-75
2023/10/28 00:45:50;;;;;;;1.90;0.63;;;;;;;;;;5092777;28;20208;-75
2023/10/28 00:48:19;;;;;;;1.70;0.60;;;;;;;;;;5092230;28;20239;-75
2023/10/28 00:50:47;;;;;;;2.70;0.70;;;;;;;;;;5092922;28;20182;-76
2023/10/28 00:53:15;;;;;;;1.70;0.60;;;;;;;;;;5092501;28;20227;-75
2023/10/28 00:55:42;;;;;;;1.85;0.85;;;;;;;;;;5092744;28;20206;-76
2023/10/28 00:58:10;;;;;;;3.97;0.70;;;;;;;;;;5094941;28;20546;-75
2023/10/28 01:00:37;;;;;;;2.10;1.08;;;;;;;;;;5096377;28;20190;-75
2023/10/28 01:03:05;;;;;;;2.20;1.00;;;;;;;;;;5095347;28;20227;-75
2023/10/28 01:05:34;;;;;;;2.42;1.15;;;;;;;;;;5096638;28;20243;-75
2023/10/28 01:08:01;;;;;;;1.80;0.70;;;;;;;;;;5095968;28;20622;-75
2023/10/28 01:10:29;;;;;;;1.70;0.60;;;;;;;;;;5095280;28;20231;-75
2023/10/28 01:12:58;;;;;;;1.92;0.70;;;;;;;;;;5095491;28;20608;-75
2023/10/28 01:15:26;;;;;;;2.53;0.70;;;;;;;;;;5095991;28;20201;-75
2023/10/28 01:17:53;;;;;;;2.30;0.70;;;;;;;;;;5096526;28;20255;-75
2023/10/28 01:20:21;;;;;;;2.28;1.00;;;;;;;;;;5096096;28;20257;-75
2023/10/28 01:22:50;;;;;;;2.75;0.75;;;;;;;;;;5095131;28;20231;-76
2023/10/28 01:25:18;;;;;;;2.75;0.98;;;;;;;;;;5096349;28;20231;-75
2023/10/28 01:27:46;;;;;;;1.70;0.70;;;;;;;;;;5095822;28;20652;-74
2023/10/28 01:30:16;;;;;;;2.10;0.85;;;;;;;;;;5096238;28;20660;-75
2023/10/28 01:32:46;;;;;;;2.20;0.80;;;;;;;;;;5095796;28;20652;-75
2023/10/28 01:35:13;;;;;;;2.78;1.08;;;;;;;;;;5094755;28;20186;-76
2023/10/28 01:37:40;;;;;;;2.47;0.80;;;;;;;;;;5096110;28;20230;-75
2023/10/28 01:40:12;;;;;;;2.22;0.88;;;;;;;;;;5095852;28;20190;-76
2023/10/28 01:42:40;;;;;;;2.00;0.70;;;;;;;;;;5095665;28;20180;-75
2023/10/28 01:45:09;;;;;;;3.00;0.80;;;;;;;;;;5095828;28;20648;-75
2023/10/28 01:47:36;;;;;;;1.80;0.70;;;;;;;;;;5095568;28;20268;-75
2023/10/28 01:50:03;;;;;;;2.50;0.73;;;;;;;;;;5095811;28;20182;-75
2023/10/28 01:52:30;;;;;;;2.35;0.70;;;;;;;;;;5095542;28;20210;-75
2023/10/28 01:54:58;;;;;;;1.90;0.77;;;;;;;;;;5094800;28;20511;-75
2023/10/28 01:57:27;;;;;;;2.25;0.70;;;;;;;;;;5095335;28;20632;-75
2023/10/28 01:59:57;;;;;;;1.80;0.70;;;;;;;;;;5095580;28;20238;-75
2023/10/28 02:02:25;;;;;;;1.85;0.80;;;;;;;;;;5095532;28;20265;-75
2023/10/28 02:04:52;;;;;;;2.33;0.70;;;;;;;;;;5095670;28;20193;-75
2023/10/28 02:07:19;;;;;;;2.80;0.70;;;;;;;;;;5095525;28;20194;-75
2023/10/28 02:09:48;;;;;;;2.05;0.80;;;;;;;;;;5095125;28;20262;-75
2023/10/28 02:12:15;;;;;;;1.70;0.60;;;;;;;;;;5095235;28;20208;-75
2023/10/28 02:14:46;;;;;;;4.57;0.73;;;;;;;;;;5095299;28;20209;-75
2023/10/28 02:17:13;;;;;;;1.98;0.70;;;;;;;;;;5095000;28;20636;-75
2023/10/28 02:19:41;;;;;;;1.70;0.60;;;;;;;;;;5094642;28;20304;-75
2023/10/28 02:22:09;;;;;;;1.70;0.70;;;;;;;;;;5094910;28;20185;-75
2023/10/28 02:24:36;;;;;;;1.70;0.57;;;;;;;;;;5094735;28;20205;-75
2023/10/28 02:27:07;;;;;;;1.80;0.65;;;;;;;;;;5095070;28;20186;-75
2023/10/28 02:29:37;;;;;;;1.70;0.60;;;;;;;;;;5095060;28;20182;-76
2023/10/28 02:32:06;;;;;;;1.70;0.70;;;;;;;;;;5093546;28;20680;-75
2023/10/28 02:34:33;;;;;;;1.63;0.55;;;;;;;;;;5094668;28;20221;-75
2023/10/28 02:37:00;;;;;;;1.70;0.70;;;;;;;;;;5094397;28;20203;-75
2023/10/28 02:39:28;;;;;;;1.80;0.80;;;;;;;;;;5094295;28;20216;-75
2023/10/28 02:41:55;;;;;;;1.70;0.60;;;;;;;;;;5094645;28;20555;-75
2023/10/28 02:44:22;;;;;;;1.67;0.60;;;;;;;;;;5094837;28;20189;-75
2023/10/28 02:46:49;;;;;;;1.80;0.60;;;;;;;;;;5093140;28;20694;-75
2023/10/28 02:49:18;;;;;;;3.45;0.68;;;;;;;;;;5094398;28;20186;-75
2023/10/28 02:51:47;;;;;;;2.95;0.63;;;;;;;;;;5094548;28;20186;-75
2023/10/28 02:54:15;;;;;;;1.90;0.70;;;;;;;;;;5094011;28;20289;-75
2023/10/28 02:56:42;;;;;;;2.25;0.70;;;;;;;;;;5094098;28;20596;-75
2023/10/28 02:59:10;;;;;;;3.25;0.55;;;;;;;;;;5094568;28;20189;-75
2023/10/28 03:01:39;;;;;;;5.53;1.55;;;;;;;;;;5093603;28;20268;-75
2023/10/28 03:04:07;;;;;;;1.70;0.60;;;;;;;;;;5093818;28;20185;-75
2023/10/28 03:06:35;;;;;;;2.08;0.80;;;;;;;;;;5094148;28;20652;-75
2023/10/28 03:09:03;;;;;;;1.75;0.60;;;;;;;;;;5093289;28;20232;-75
2023/10/28 03:11:30;;;;;;;2.00;0.70;;;;;;;;;;5093828;28;20270;-75
2023/10/28 03:13:57;;;;;;;1.90;0.70;;;;;;;;;;5094066;28;20213;-75
2023/10/28 03:16:25;;;;;;;10.60;2.08;;;;;;;;;;5093881;28;20643;-75
2023/10/28 03:18:52;;;;;;;2.08;0.80;;;;;;;;;;5094499;28;20556;-75
2023/10/28 03:21:19;;;;;;;1.80;0.65;;;;;;;;;;5092718;28;20217;-75
2023/10/28 03:23:50;;;;;;;2.00;0.77;;;;;;;;;;5073546;28;20194;-75
2023/10/28 03:26:18;;;;;;;1.80;0.68;;;;;;;;;;5082148;28;20251;-75
2023/10/28 03:28:46;;;;;;;1.90;0.80;;;;;;;;;;5094172;28;20247;-75
2023/10/28 03:31:14;;;;;;;2.05;1.00;;;;;;;;;;5093816;28;20186;-75
2023/10/28 03:33:42;;;;;;;2.20;0.88;;;;;;;;;;5092740;28;20205;-75
2023/10/28 03:36:10;;;;;;;2.10;0.80;;;;;;;;;;5093820;28;20185;-75
2023/10/28 03:38:37;;;;;;;2.40;1.25;;;;;;;;;;5093572;28;20514;-75
2023/10/28 03:41:08;;;;;;;2.25;1.20;;;;;;;;;;5093742;28;20193;-75
2023/10/28 03:43:36;;;;;;;1.90;0.80;;;;;;;;;;5093916;28;20287;-75
2023/10/28 03:46:04;;;;;;;3.03;1.10;;;;;;;;;;5093706;28;20196;-75
2023/10/28 03:48:31;;;;;;;2.92;0.90;;;;;;;;;;5092578;28;20288;-75
2023/10/28 03:51:00;;;;;;;2.40;0.98;;;;;;;;;;5093593;28;20258;-75
2023/10/28 03:53:27;;;;;;;2.45;1.08;;;;;;;;;;5092942;28;20206;-75
2023/10/28 03:55:54;;;;;;;3.28;1.33;;;;;;;;;;5093281;28;20272;-75
2023/10/28 03:58:25;;;;;;;2.65;0.90;;;;;;;;;;5093718;28;20189;-75
2023/10/28 04:00:55;;;;;;;2.55;1.00;;;;;;;;;;5092953;28;20177;-75
2023/10/28 04:03:23;;;;;;;3.03;1.00;;;;;;;;;;5092826;28;20190;-76
2023/10/28 04:05:50;;;;;;;2.55;0.98;;;;;;;;;;5093284;28;20574;-75
2023/10/28 04:08:18;;;;;;;1.70;0.68;;;;;;;;;;5093528;28;20185;-75
2023/10/28 04:10:46;;;;;;;2.10;0.70;;;;;;;;;;5092816;28;20185;-75
2023/10/28 04:13:13;;;;;;;2.42;0.80;;;;;;;;;;5092212;28;20245;-75
2023/10/28 04:15:42;;;;;;;2.00;1.02;;;;;;;;;;5093287;28;20226;-75
2023/10/28 04:18:09;;;;;;;1.77;0.70;;;;;;;;;;5093220;28;20185;-75
2023/10/28 04:20:37;;;;;;;5.15;0.95;;;;;;;;;;5092718;28;20213;-75
2023/10/28 04:23:05;;;;;;;1.90;0.70;;;;;;;;;;5090004;28;20189;-75
2023/10/28 04:25:33;;;;;;;2.00;0.88;;;;;;;;;;5091765;28;20221;-75
2023/10/28 04:28:01;;;;;;;1.90;0.80;;;;;;;;;;5093175;28;20257;-75
2023/10/28 04:30:28;;;;;;;2.00;0.70;;;;;;;;;;5092806;28;20225;-74
2023/10/28 04:32:57;;;;;;;1.85;0.70;;;;;;;;;;5095085;28;20209;-75
2023/10/28 04:35:24;;;;;;;2.20;0.85;;;;;;;;;;5097252;28;20185;-75
2023/10/28 04:37:52;;;;;;;2.92;0.82;;;;;;;;;;5096972;28;20286;-75
2023/10/28 04:40:19;;;;;;;2.38;0.77;;;;;;;;;;5096553;28;20182;-75
2023/10/28 04:42:47;;;;;;;3.05;0.80;;;;;;;;;;5096125;28;20651;-75
2023/10/28 04:45:14;;;;;;;2.10;0.70;;;;;;;;;;5096988;28;20605;-75
2023/10/28 04:47:41;;;;;;;1.80;0.75;;;;;;;;;;5097017;28;20186;-75
2023/10/28 04:50:11;;;;;;;1.75;0.70;;;;;;;;;;5096694;28;20225;-75
2023/10/28 04:52:38;;;;;;;1.73;0.63;;;;;;;;;;5097114;28;20213;-75
2023/10/28 04:55:06;;;;;;;2.58;1.33;;;;;;;;;;5096690;28;20193;-75
2023/10/28 04:57:34;;;;;;;1.83;0.70;;;;;;;;;;5096612;28;20186;-75
2023/10/28 05:00:02;;;;;;;2.17;0.93;;;;;;;;;;5096752;28;20236;-75
2023/10/28 05:02:29;;;;;;;2.03;0.70;;;;;;;;;;5096033;28;20235;-75
2023/10/28 05:04:57;;;;;;;2.10;0.80;;;;;;;;;;5096211;28;20721;-75
2023/10/28 05:07:25;;;;;;;2.20;1.02;;;;;;;;;;5095744;28;20181;-75
2023/10/28 05:09:52;;;;;;;2.20;0.90;;;;;;;;;;5096543;28;20190;-75
2023/10/28 05:12:20;;;;;;;2.00;0.80;;;;;;;;;;5095935;28;20186;-75
2023/10/28 05:14:47;;;;;;;2.20;0.98;;;;;;;;;;5096173;28;20182;-75
2023/10/28 05:17:16;;;;;;;2.15;1.10;;;;;;;;;;5096171;28;20719;-75
2023/10/28 05:19:46;;;;;;;2.60;1.00;;;;;;;;;;5096243;28;20217;-75
2023/10/28 05:22:17;;;;;;;2.20;0.90;;;;;;;;;;5096518;28;20189;-75
2023/10/28 05:24:48;;;;;;;2.60;0.90;;;;;;;;;;5096248;28;20258;-75
2023/10/28 05:27:18;;;;;;;2.17;1.30;;;;;;;;;;5096124;28;20185;-75
2023/10/28 05:29:45;;;;;;;3.08;1.20;;;;;;;;;;5096142;28;20174;-75
2023/10/28 05:32:14;;;;;;;4.15;0.95;;;;;;;;;;5095090;28;20243;-75
2023/10/28 05:34:41;;;;;;;4.40;1.95;;;;;;;;;;5096003;28;20208;-75
2023/10/28 05:37:08;;;;;;;3.92;2.13;;;;;;;;;;5095907;28;20602;-75
2023/10/28 05:39:38;;;;;;;12.13;3.40;;;;;;;;;;5095975;28;20243;-75
2023/10/28 05:42:07;;;;;;;4.85;3.40;;;;;;;;;;5095642;28;20268;-75
2023/10/28 05:44:35;;;;;;;6.50;3.88;;;;;;;;;;5094950;28;20181;-75
2023/10/28 05:47:02;;;;;;;7.63;3.80;;;;;;;;;;5095188;28;20189;-75
2023/10/28 05:49:29;;;;;;;4.53;2.97;;;;;;;;;;5096253;28;20185;-75
2023/10/28 05:51:56;;;;;;;5.50;2.75;;;;;;;;;;5095459;28;20246;-75
2023/10/28 05:54:24;;;;;;;4.10;2.63;;;;;;;;;;5095503;28;20209;-75
2023/10/28 05:56:51;;;;;;;3.40;1.80;;;;;;;;;;5094877;28;20293;-75
2023/10/28 05:59:20;;;;;;;3.30;1.88;;;;;;;;;;5095044;28;20234;-75
2023/10/28 06:01:47;;;;;;;3.65;2.38;;;;;;;;;;5081935;28;20641;-75
2023/10/28 06:04:14;;;;;;;3.88;2.47;;;;;;;;;;5094891;28;20243;-74
2023/10/28 06:06:42;;;;;;;4.22;2.67;;;;;;;;;;5094933;28;20289;-75
2023/10/28 06:09:10;;;;;;;6.30;2.42;;;;;;;;;;5095389;28;20197;-75
2023/10/28 06:11:38;;;;;;;4.20;2.10;;;;;;;;;;5094779;28;20544;-75
2023/10/28 06:14:05;;;;;;;5.80;2.10;;;;;;;;;;5094388;28;20205;-75
2023/10/28 06:16:35;;;;;;;3.78;1.90;;;;;;;;;;5094399;28;20205;-74
2023/10/28 06:19:02;;;;;;;3.80;1.88;;;;;;;;;;5094674;28;20517;-75
2023/10/28 06:21:30;;;;;;;3.40;2.30;;;;;;;;;;5095121;28;20533;-74
2023/10/28 06:23:57;;;;;;;6.05;3.97;;;;;;;;;;5095185;28;20255;-74
2023/10/28 06:26:25;;;;;;;4.60;2.20;;;;;;;;;;5093995;28;20221;-74
2023/10/28 06:28:53;;;;;;;5.28;2.38;;;;;;;;;;5094176;28;20238;-74
2023/10/28 06:31:20;;;;;;;4.57;2.40;;;;;;;;;;5095013;28;20185;-74
2023/10/28 06:33:49;;;;;;;2.72;2.00;;;;;;;;;;5094750;28;20748;-75
2023/10/28 06:36:18;;;;;;;2.80;1.45;;;;;;;;;;5094239;28;20186;-75
2023/10/28 06:38:46;;;;;;;2.47;1.25;;;;;;;;;;5094812;28;20233;-75
2023/10/28 06:41:13;;;;;;;3.17;1.95;;;;;;;;;;5094645;28;20231;-75
2023/10/28 06:43:41;;;;;;;4.65;1.80;;;;;;;;;;5094932;28;20529;-75
2023/10/28 06:46:09;;;;;;;3.00;1.70;;;;;;;;;;5093898;28;20647;-75
2023/10/28 06:48:36;;;;;;;3.97;1.75;;;;;;;;;;5094212;28;20178;-75
2023/10/28 06:51:06;;;;;;;3.00;1.60;;;;;;;;;;5093923;28;20193;-75
2023/10/28 06:53:36;;;;;;;5.60;2.25;;;;;;;;;;5094119;28;20212;-75
2023/10/28 06:56:06;;;;;;;5.95;3.38;;;;;;;;;;5092950;28;20195;-75
2023/10/28 06:58:33;;;;;;;5.47;2.75;;;;;;;;;;5094579;28;20193;-75
2023/10/28 07:01:02;;;;;;;1.90;0.90;;;;;;;;;;5094330;28;20196;-75
2023/10/28 07:03:29;;;;;;;2.05;1.05;;;;;;;;;;5093963;28;20553;-75
2023/10/28 07:05:57;;;;;;;3.55;1.13;;;;;;;;;;5093566;28;20182;-75
2023/10/28 07:08:26;;;;;;;2.25;1.08;;;;;;;;;;5077591;28;20239;-75
2023/10/28 07:10:53;;;;;;;2.40;1.23;;;;;;;;;;5094036;28;20189;-75
2023/10/28 07:13:20;;;;;;;2.20;1.20;;;;;;;;;;5094131;28;20213;-75
2023/10/28 07:15:47;;;;;;;2.40;1.00;;;;;;;;;;5093404;28;20596;-75
2023/10/28 07:18:15;;;;;;;2.47;1.23;;;;;;;;;;5093500;28;20186;-76
2023/10/28 07:20:42;;;;;;;4.07;1.40;;;;;;;;;;5093161;28;20213;-75
2023/10/28 07:23:09;;;;;;;2.60;1.00;;;;;;;;;;5092817;28;20449;-76
2023/10/28 07:25:38;;;;;;;2.90;1.33;;;;;;;;;;5084691;28;20776;-75
2023/10/28 07:28:12;;;;;;;2.90;1.47;;;;;;;;;;5093565;28;20439;-75
2023/10/28 07:30:44;;;;;;;4.13;1.20;;;;;;;;;;5093638;28;20511;-75
2023/10/28 07:33:13;;;;;;;2.70;1.47;;;;;;;;;;5093261;28;20428;-75
2023/10/28 07:35:44;;;;;;;2.30;1.20;;;;;;;;;;5092923;28;20436;-76
2023/10/28 07:38:12;;;;;;;5.50;1.53;;;;;;;;;;5093494;28;20427;-76
2023/10/28 07:40:41;;;;;;;3.20;1.60;;;;;;;;;;5093051;28;20489;-76
2023/10/28 07:43:09;;;;;;;2.23;1.10;;;;;;;;;;5093640;28;20501;-76
2023/10/28 07:45:36;;;;;;;2.50;1.10;;;;;;;;;;5093512;28;20438;-76
2023/10/28 07:48:04;;;;;;;2.70;1.20;;;;;;;;;;5092886;28;20493;-76
2023/10/28 07:50:31;;;;;;;3.20;1.47;;;;;;;;;;5093136;28;20458;-76
2023/10/28 07:52:58;;;;;;;2.40;1.27;;;;;;;;;;5092790;28;20478;-76
2023/10/28 07:55:25;;;;;;;2.60;1.23;;;;;;;;;;5093042;28;20479;-76
2023/10/28 07:57:54;;;;;;;2.37;1.30;;;;;;;;;;5093226;28;20493;-76
2023/10/28 08:00:22;;;;;;;3.30;1.43;;;;;;;;;;5093514;28;20794;-76
2023/10/28 08:02:51;;;;;;;3.40;1.33;;;;;;;;;;5093056;28;20866;-77
2023/10/28 08:05:18;;;;;;;2.40;1.00;;;;;;;;;;5092320;28;20439;-77
2023/10/28 08:07:46;;;;;;;3.80;1.33;;;;;;;;;;5092345;28;20440;-76
2023/10/28 08:10:14;;;;;;;3.70;1.37;;;;;;;;;;5093153;28;20428;-76
2023/10/28 08:12:42;;;;;;;3.00;1.00;;;;;;;;;;5092697;28;20509;-77
2023/10/28 08:15:11;;;;;;;2.17;0.70;;;;;;;;;;5093161;28;20867;-77
2023/10/28 08:17:38;;;;;;;5.70;0.80;;;;;;;;;;5092464;28;20460;-77
2023/10/28 08:20:07;;;;;;;1.80;0.60;;;;;;;;;;5092052;28;20497;-77
2023/10/28 08:22:36;;;;;;;2.07;0.70;;;;;;;;;;5091877;28;20447;-77
2023/10/28 08:25:04;;;;;;;1.77;0.60;;;;;;;;;;5092668;28;20454;-77
2023/10/28 08:27:32;;;;;;;3.17;0.70;;;;;;;;;;5090749;28;20439;-77
2023/10/28 08:30:01;;;;;;;2.10;0.70;;;;;;;;;;5092148;28;20439;-77
2023/10/28 08:32:31;;;;;;;1.97;0.80;;;;;;;;;;5092221;28;20516;-76
2023/10/28 08:34:58;;;;;;;2.20;1.00;;;;;;;;;;5092062;28;20478;-78
2023/10/28 08:37:25;;;;;;;1.80;0.60;;;;;;;;;;5092198;28;20477;-78
2023/10/28 08:39:53;;;;;;;4.10;1.00;;;;;;;;;;5092492;28;20952;-78
2023/10/28 08:42:20;;;;;;;2.07;0.60;;;;;;;;;;5092090;28;20439;-78
2023/10/28 08:44:48;;;;;;;1.80;0.60;;;;;;;;;;5092517;28;20439;-77
2023/10/28 08:47:18;;;;;;;3.07;1.33;;;;;;;;;;5090950;28;20871;-78
2023/10/28 08:49:48;;;;;;;2.67;0.80;;;;;;;;;;5089368;28;20523;-78
2023/10/28 08:52:19;;;;;;;2.03;0.60;;;;;;;;;;5092317;28;20430;-78
2023/10/28 08:54:46;;;;;;;1.90;0.60;;;;;;;;;;5091361;28;20479;-78
2023/10/28 08:57:15;;;;;;;1.93;0.60;;;;;;;;;;5091769;28;20804;-78
2023/10/28 08:59:42;;;;;;;1.80;0.53;;;;;;;;;;5092058;28;20476;-78
2023/10/28 09:02:12;;;;;;;2.77;0.60;;;;;;;;;;5089929;28;20443;-78
2023/10/28 09:04:39;;;;;;;1.80;0.60;;;;;;;;;;5092148;28;20778;-78
2023/10/28 09:07:08;;;;;;;2.00;0.70;;;;;;;;;;5088703;28;20497;-78
2023/10/28 09:09:37;;;;;;;3.20;0.60;;;;;;;;;;5071478;28;20508;-79
2023/10/28 09:12:07;;;;;;;2.10;0.70;;;;;;;;;;5088894;28;20437;-79
2023/10/28 09:14:34;;;;;;;3.17;0.80;;;;;;;;;;5091184;28;21021;-78
2023/10/28 09:17:02;;;;;;;2.10;0.70;;;;;;;;;;5092013;28;20488;-79
2023/10/28 09:19:30;;;;;;;2.00;0.60;;;;;;;;;;5094481;28;20817;-79
2023/10/28 09:21:58;;;;;;;2.50;0.80;;;;;;;;;;5091863;28;20829;-79
2023/10/28 09:24:27;;;;;;;1.80;0.60;;;;;;;;;;5081761;28;20587;-79
2023/10/28 09:26:54;;;;;;;2.30;0.70;;;;;;;;;;5095017;28;20459;-79
2023/10/28 09:29:29;;;;;;;2.20;0.77;;;;;;;;;;5074982;28;20976;-79
2023/10/28 09:32:05;;;;;;;2.50;0.70;;;;;;;;;;5075235;28;20529;-79
2023/10/28 09:34:33;;;;;;;2.07;0.73;;;;;;;;;;5093922;28;20457;-79
2023/10/28 09:37:00;;;;;;;3.07;0.60;;;;;;;;;;5095393;28;20604;-79
2023/10/28 09:39:29;;;;;;;2.10;0.70;;;;;;;;;;5095368;28;20458;-79
2023/10/28 09:41:57;;;;;;;1.80;0.50;;;;;;;;;;5094924;28;20484;-80
2023/10/28 09:44:25;;;;;;;1.80;0.50;;;;;;;;;;5094958;28;20470;-79
2023/10/28 09:46:57;;;;;;;1.90;0.50;;;;;;;;;;5095008;28;20462;-79
2023/10/28 09:49:26;;;;;;;1.80;0.50;;;;;;;;;;5094758;28;20483;-79
2023/10/28 09:51:54;;;;;;;2.00;0.60;;;;;;;;;;5094016;28;20431;-79
2023/10/28 09:54:25;;;;;;;3.23;0.90;;;;;;;;;;5095024;28;20443;-79
2023/10/28 09:56:54;;;;;;;2.20;0.90;;;;;;;;;;5094990;28;20416;-80
2023/10/28 09:59:22;;;;;;;2.03;0.70;;;;;;;;;;5094552;28;20463;-77
2023/10/28 10:01:58;;;;;;;1.90;0.60;;;;;;;;;;5094169;28;20501;-77
2023/10/28 10:04:32;;;;;;;2.10;0.60;;;;;;;;;;5094876;28;20467;-78
2023/10/28 10:06:59;;;;;;;2.03;0.67;;;;;;;;;;5094099;28;20500;-77
2023/10/28 10:09:26;;;;;;;2.53;0.70;;;;;;;;;;5091631;28;20485;-77
2023/10/28 10:11:57;;;;;;;2.13;0.77;;;;;;;;;;5092986;28;20493;-77
2023/10/28 10:14:25;;;;;;;1.90;0.70;;;;;;;;;;5094448;28;20423;-76
2023/10/28 10:16:56;;;;;;;2.03;0.67;;;;;;;;;;5094051;28;20906;-76
2023/10/28 10:19:26;;;;;;;2.03;0.77;;;;;;;;;;5094429;28;20550;-76
2023/10/28 10:21:54;;;;;;;1.80;0.60;;;;;;;;;;5093474;28;20486;-77
2023/10/28 10:24:22;;;;;;;2.20;0.70;;;;;;;;;;5093476;28;20481;-77
2023/10/28 10:26:58;;;;;;;2.40;0.70;;;;;;;;;;5094103;28;20442;-77
2023/10/28 10:29:26;;;;;;;2.53;1.17;;;;;;;;;;5093093;28;20953;-76
2023/10/28 10:31:55;;;;;;;2.53;0.90;;;;;;;;;;5093400;28;20443;-77
2023/10/28 10:34:33;;;;;;;2.53;0.97;;;;;;;;;;5093785;28;20435;-77
2023/10/28 10:37:01;;;;;;;1.87;0.60;;;;;;;;;;5093875;28;20923;-77
2023/10/28 10:39:28;;;;;;;3.07;0.63;;;;;;;;;;5091915;28;20534;-76
2023/10/28 10:41:59;;;;;;;2.30;0.90;;;;;;;;;;5094011;28;20435;-77
2023/10/28 10:44:33;;;;;;;2.23;0.87;;;;;;;;;;5094167;28;20853;-77
2023/10/28 10:47:01;;;;;;;3.43;0.90;;;;;;;;;;5091784;28;20431;-77
2023/10/28 10:49:30;;;;;;;5.17;1.00;;;;;;;;;;5088731;28;20435;-78
2023/10/28 10:51:57;;;;;;;4.20;0.80;;;;;;;;;;5085812;28;21144;-78
2023/10/28 10:54:29;;;;;;;3.17;1.13;;;;;;;;;;5079380;28;20439;-77
2023/10/28 10:56:58;;;;;;;2.77;1.00;;;;;;;;;;5092234;28;20470;-77
2023/10/28 10:59:28;;;;;;;3.50;0.87;;;;;;;;;;5093695;28;20442;-77
2023/10/28 11:01:56;;;;;;;2.67;0.80;;;;;;;;;;5093371;28;20446;-79
2023/10/28 11:04:25;;;;;;;2.97;0.97;;;;;;;;;;5092304;28;20439;-77
2023/10/28 11:06:52;;;;;;;2.60;0.93;;;;;;;;;;5093778;28;20443;-76
2023/10/28 11:09:20;;;;;;;2.33;0.70;;;;;;;;;;5093172;28;21002;-78
2023/10/28 11:11:47;;;;;;;2.60;0.80;;;;;;;;;;5092999;28;20446;-77
2023/10/28 11:14:16;;;;;;;2.40;0.70;;;;;;;;;;5093142;28;20440;-77
2023/10/28 11:16:44;;;;;;;2.00;0.70;;;;;;;;;;5092145;28;20497;-77
2023/10/28 11:19:11;;;;;;;2.30;0.80;;;;;;;;;;5092753;28;20447;-77
2023/10/28 11:21:39;;;;;;;2.60;0.73;;;;;;;;;;5093284;28;20447;-77
2023/10/28 11:24:08;;;;;;;2.23;0.80;;;;;;;;;;5093000;28;20435;-77
2023/10/28 11:26:36;;;;;;;2.90;0.77;;;;;;;;;;5093361;28;20557;-78
2023/10/28 11:29:05;;;;;;;4.17;0.80;;;;;;;;;;5093206;28;20428;-78
2023/10/28 11:31:36;;;;;;;2.27;1.00;;;;;;;;;;5093395;28;20443;-77
2023/10/28 11:34:04;;;;;;;2.57;1.00;;;;;;;;;;5093118;28;20427;-77
2023/10/28 11:36:33;;;;;;;3.30;1.00;;;;;;;;;;5092912;28;20446;-77
2023/10/28 11:39:08;;;;;;;2.57;0.93;;;;;;;;;;5092236;28;20952;-77
2023/10/28 11:41:36;;;;;;;3.33;1.00;;;;;;;;;;5092455;28;20414;-77
2023/10/28 11:44:03;;;;;;;2.60;0.93;;;;;;;;;;5092937;28;20441;-77
2023/10/28 11:46:31;;;;;;;2.90;0.90;;;;;;;;;;5092221;28;20556;-77
2023/10/28 11:48:59;;;;;;;2.93;0.70;;;;;;;;;;5092452;28;20443;-78
2023/10/28 11:51:27;;;;;;;3.17;1.30;;;;;;;;;;5092407;28;20467;-77
2023/10/28 11:53:55;;;;;;;6.73;1.20;;;;;;;;;;5092878;28;20470;-77
2023/10/28 11:56:22;;;;;;;3.20;0.80;;;;;;;;;;5091967;28;20496;-80
2023/10/28 11:58:50;;;;;;;2.47;0.73;;;;;;;;;;5092209;28;20481;-77
2023/10/28 12:01:18;;;;;;;3.00;0.97;;;;;;;;;;5091875;28;20454;-77
2023/10/28 12:03:46;;;;;;;3.60;1.00;;;;;;;;;;5092131;28;20882;-77
2023/10/28 12:06:15;;;;;;;2.63;0.90;;;;;;;;;;5092163;28;20471;-76
2023/10/28 12:08:42;;;;;;;2.40;0.70;;;;;;;;;;5091205;28;20435;-77
2023/10/28 12:11:09;;;;;;;2.73;0.87;;;;;;;;;;5092148;28;20467;-77
2023/10/28 12:13:37;;;;;;;3.30;0.70;;;;;;;;;;5092423;28;20435;-76
2023/10/28 12:16:05;;;;;;;3.00;1.03;;;;;;;;;;5092203;28;20447;-76
2023/10/28 12:18:32;;;;;;;2.37;0.90;;;;;;;;;;5092228;28;20455;-77
2023/10/28 12:21:00;;;;;;;2.40;0.90;;;;;;;;;;5092773;28;20523;-76
2023/10/28 12:23:28;;;;;;;2.67;0.80;;;;;;;;;;5093141;28;20431;-76
2023/10/28 12:25:56;;;;;;;2.10;0.83;;;;;;;;;;5093112;28;20547;-76
2023/10/28 12:28:26;;;;;;;2.83;0.80;;;;;;;;;;5093152;28;20438;-76
2023/10/28 12:30:53;;;;;;;3.60;0.77;;;;;;;;;;5093147;28;20464;-76
2023/10/28 12:33:21;;;;;;;3.00;1.07;;;;;;;;;;5092801;28;20447;-76
2023/10/28 12:35:48;;;;;;;3.23;1.00;;;;;;;;;;5093105;28;20443;-76
2023/10/28 12:38:15;;;;;;;2.80;0.80;;;;;;;;;;5093133;28;20440;-76
2023/10/28 12:40:44;;;;;;;3.33;0.90;;;;;;;;;;5092663;28;20435;-75
2023/10/28 12:43:14;;;;;;;2.33;1.00;;;;;;;;;;5093047;28;20427;-75
2023/10/28 12:45:41;;;;;;;1.90;0.70;;;;;;;;;;5093028;28;20862;-76
2023/10/28 12:48:08;;;;;;;3.20;0.80;;;;;;;;;;5093406;28;20435;-76
2023/10/28 12:50:36;;;;;;;2.30;0.77;;;;;;;;;;5092944;28;20439;-75
2023/10/28 12:53:03;;;;;;;2.70;0.80;;;;;;;;;;5093649;28;20500;-76
2023/10/28 12:55:30;;;;;;;5.00;1.07;;;;;;;;;;5096599;28;20496;-75
2023/10/28 12:57:59;;;;;;;2.50;0.70;;;;;;;;;;5096994;28;20559;-75
2023/10/28 13:00:27;;;;;;;4.33;0.83;;;;;;;;;;5096538;28;20500;-75
2023/10/28 13:02:54;;;;;;;3.07;0.93;;;;;;;;;;5096466;28;20431;-75
2023/10/28 13:05:24;;;;;;;2.30;0.90;;;;;;;;;;5096588;28;20543;-75
2023/10/28 13:07:52;;;;;;;2.10;0.80;;;;;;;;;;5096589;28;20476;-75
2023/10/28 13:10:19;;;;;;;2.40;0.70;;;;;;;;;;5096519;28;20496;-75
2023/10/28 13:12:48;;;;;;;2.23;0.80;;;16.00;53.70;;;;;;5096360;28;20435;-78
2023/10/28 13:15:17;;;;;;;3.33;0.77;;;35.10;10.60;;;;;;5096158;28;20439;-77
2023/10/28 13:17:44;;;;;;;3.63;1.13;;;33.20;11.70;;;;;;5096198;28;20977;-76
2023/10/28 13:20:12;;;;;;;2.53;0.73;;;32.20;12.70;;;;;;5095858;28;20500;-76
2023/10/28 13:22:40;;;;;;;2.00;0.70;;;31.30;13.60;;;;;;5096134;28;20930;-76
2023/10/28 13:25:08;;;;;;;6.67;0.90;;;30.60;14.40;;;;;;5096280;28;20505;-76
2023/10/28 13:27:39;;;;;;;2.57;0.77;;;29.90;15.10;;;;;;5096228;28;20430;-76
2023/10/28 13:30:08;;;;;;;3.47;0.80;;;29.10;16.60;;;;;;5096074;28;20433;-76
2023/10/28 13:32:37;;;;;;;2.60;0.80;;;28.50;16.60;;;;;;5095971;28;20457;-76
2023/10/28 13:35:04;;;;;;;2.97;1.00;;;27.80;17.10;;;;;;5095871;28;20906;-76
2023/10/28 13:37:31;;;;;;;5.03;1.47;;;27.30;17.70;;;;;;5096218;28;20499;-76
2023/10/28 13:39:58;;;;;;;2.57;1.00;;;26.90;18.20;;;;;;5095980;28;20442;-76
2023/10/28 13:42:26;;;;;;;2.43;0.87;;;26.50;18.80;;;;;;5095772;28;20896;-76
2023/10/28 13:44:58;;;;;;;3.63;0.80;;;26.10;18.70;;;;;;5095672;28;20424;-76
2023/10/28 13:47:25;;;;;;;2.93;0.80;;;25.70;18.70;;;;;;5096030;28;20416;-76
2023/10/28 13:49:54;;;;;;;3.90;0.93;;;25.30;19.60;;;;;;5095540;28;20455;-76
2023/10/28 13:52:22;;;;;;;3.73;1.00;;;24.90;20.40;;;;;;5095842;28;20446;-76
2023/10/28 13:54:51;;;;;;;2.87;1.00;;;24.40;20.60;;;;;;5095699;28;20501;-76
2023/10/28 13:57:18;;;;;;;2.90;0.83;;;24.00;21.10;;;;;;5095502;28;20471;-76
2023/10/28 13:59:45;;;;;;;2.60;0.90;;;23.50;21.70;;;;;;5095398;28;20480;-76
2023/10/28 14:02:13;;;;;;;2.70;1.00;;;;;;;;;;5095381;28;20436;-76
2023/10/28 14:04:41;;;;;;;3.90;1.03;;;;;;;;;;5094905;28;20849;-76
2023/10/28 14:07:09;;;;;;;3.57;0.70;;;;;;;;;;5095570;28;20486;-76
2023/10/28 14:09:37;;;;;;;2.53;0.67;;;;;;;;;;5095537;28;20780;-76
2023/10/28 14:12:04;;;;;;;2.67;1.00;;;;;;;;;;5095241;28;20432;-76
2023/10/28 14:14:32;;;;;;;3.33;1.50;;;;;;;;;;5095495;28;20440;-76
2023/10/28 14:16:59;;;;;;;3.17;0.97;;;;;;;;;;5095325;28;20448;-76
2023/10/28 14:19:28;;;;;;;2.57;0.80;;;;;;;;;;5094203;28;20826;-76
2023/10/28 14:21:56;;;;;;;5.27;1.00;;;;;;;;;;5095021;28;20423;-76
2023/10/28 14:24:24;;;;;;;4.40;1.47;;;;;;;;;;5095178;28;20431;-76
2023/10/28 14:26:52;;;;;;;5.07;1.70;;;;;;;;;;5094892;28;20878;-76
2023/10/28 14:29:19;;;;;;;6.03;1.90;;;;;;;;;;5094848;28;20447;-77
2023/10/28 14:31:47;;;;;;;5.10;2.30;;;;;;;;;;5093352;28;20474;-76
2023/10/28 14:34:15;;;;;;;6.70;2.70;;;;;;;;;;5094832;28;20431;-76
2023/10/28 14:36:42;;;;;;;8.67;3.60;;;;;;;;;;5094959;28;20454;-76
2023/10/28 14:39:09;;;;;;;10.40;3.97;;;;;;;;;;5094604;28;20838;-76
2023/10/28 14:41:38;;;;;;;12.30;4.97;;;;;;;;;;5094478;28;20857;-76